createdAt,value
2019-05-07T00:02:09.338Z,5.00
2019-05-07T00:05:14.438Z,4.37
2019-05-07T00:08:19.143Z,4.37
2019-05-07T00:11:23.942Z,4.33
2019-05-07T00:14:29.265Z,4.33
2019-05-07T00:17:34.497Z,3.67
2019-05-07T00:20:39.314Z,4.40
2019-05-07T00:23:44.477Z,4.63
2019-05-07T00:26:49.375Z,4.70
2019-05-07T00:29:54.535Z,4.10
2019-05-07T00:32:59.282Z,4.80
2019-05-07T00:36:32.229Z,4.50
2019-05-07T00:40:02.694Z,6.47
2019-05-07T00:43:22.467Z,5.37
2019-05-07T00:46:29.531Z,9.70
2019-05-07T00:49:34.827Z,6.40
2019-05-07T00:52:39.898Z,5.50
2019-05-07T00:55:45.096Z,21.03
2019-05-07T00:58:52.531Z,6.70
2019-05-07T01:01:57.211Z,7.20
2019-05-07T01:05:03.069Z,6.90
2019-05-07T01:08:08.102Z,6.30
2019-05-07T01:11:13.341Z,6.00
2019-05-07T01:14:18.359Z,5.77
2019-05-07T01:17:23.505Z,5.93
2019-05-07T01:20:28.690Z,5.47
2019-05-07T01:23:33.717Z,5.63
2019-05-07T01:26:38.833Z,6.00
2019-05-07T01:29:43.904Z,5.43
2019-05-07T01:32:57.010Z,5.10
2019-05-07T01:36:09.692Z,5.50
2019-05-07T01:39:14.691Z,5.93
2019-05-07T01:42:22.028Z,4.90
2019-05-07T01:45:26.813Z,5.13
2019-05-07T01:48:32.421Z,4.77
2019-05-07T01:51:39.029Z,5.47
2019-05-07T01:54:47.108Z,5.00
2019-05-07T01:57:52.312Z,5.70
2019-05-07T02:00:57.440Z,5.60
2019-05-07T02:04:22.292Z,5.33
2019-05-07T02:07:40.053Z,5.17
2019-05-07T02:10:53.633Z,5.00
2019-05-07T02:13:58.462Z,5.00
2019-05-07T02:17:03.281Z,7.10
2019-05-07T02:20:08.641Z,6.33
2019-05-07T02:23:13.733Z,5.00
2019-05-07T02:26:18.829Z,4.97
2019-05-07T02:29:24.029Z,5.30
2019-05-07T02:32:29.194Z,4.73
2019-05-07T02:35:34.074Z,4.60
2019-05-07T02:39:04.060Z,4.40
2019-05-07T02:42:09.110Z,5.00
2019-05-07T02:45:26.914Z,4.77
2019-05-07T02:48:36.568Z,5.03
2019-05-07T02:51:56.955Z,5.60
2019-05-07T02:55:13.662Z,5.57
2019-05-07T02:58:18.856Z,5.73
2019-05-07T03:01:24.058Z,5.50
2019-05-07T03:04:28.936Z,5.07
2019-05-07T03:07:33.939Z,5.23
2019-05-07T03:10:39.222Z,6.37
2019-05-07T03:13:44.358Z,5.40
2019-05-07T03:16:49.792Z,5.30
2019-05-07T03:19:57.538Z,4.90
2019-05-07T03:23:03.221Z,5.13
2019-05-07T03:26:28.921Z,5.20
2019-05-07T03:29:34.055Z,4.60
2019-05-07T03:32:47.471Z,5.33
2019-05-07T03:35:56.128Z,5.00
2019-05-07T03:38:59.221Z,5.93
2019-05-07T03:42:03.990Z,6.30
2019-05-07T03:45:33.720Z,4.67
2019-05-07T03:48:39.411Z,5.00
2019-05-07T03:51:44.488Z,5.73
2019-05-07T03:54:49.593Z,5.10
2019-05-07T03:57:54.732Z,5.43
2019-05-07T04:00:59.905Z,5.40
2019-05-07T04:04:04.895Z,5.73
2019-05-07T04:07:09.901Z,6.60
2019-05-07T04:10:16.697Z,6.50
2019-05-07T04:13:23.811Z,6.37
2019-05-07T04:16:28.689Z,6.97
2019-05-07T04:19:33.749Z,5.87
2019-05-07T04:22:39.011Z,6.57
2019-05-07T04:25:55.393Z,6.77
2019-05-07T04:29:06.445Z,7.40
2019-05-07T04:32:14.340Z,8.07
2019-05-07T04:35:33.404Z,7.87
2019-05-07T04:38:38.834Z,7.97
2019-05-07T04:41:43.829Z,7.70
2019-05-07T04:44:49.146Z,7.73
2019-05-07T04:47:54.085Z,5.77
2019-05-07T04:51:03.581Z,5.50
2019-05-07T04:54:07.769Z,6.17
2019-05-07T04:57:33.012Z,6.13
2019-05-07T05:00:38.357Z,6.20
2019-05-07T05:03:43.849Z,5.90
2019-05-07T05:06:49.052Z,6.53
2019-05-07T05:09:54.122Z,5.87
2019-05-07T05:12:59.946Z,5.62
2019-05-07T05:16:24.141Z,5.83
2019-05-07T05:19:29.280Z,6.00
2019-05-07T05:22:42.509Z,5.70
2019-05-07T05:25:47.586Z,6.60
2019-05-07T05:28:52.644Z,6.50
2019-05-07T05:31:57.543Z,5.87
2019-05-07T05:35:08.733Z,5.23
2019-05-07T05:38:13.970Z,6.60
2019-05-07T05:41:18.870Z,7.13
2019-05-07T05:44:32.054Z,7.23
2019-05-07T05:47:37.376Z,7.67
2019-05-07T05:50:49.637Z,7.10
2019-05-07T05:54:16.466Z,6.70
2019-05-07T05:57:46.576Z,8.00
2019-05-07T06:01:19.522Z,7.83
2019-05-07T06:04:46.140Z,7.50
2019-05-07T06:07:59.841Z,8.67
2019-05-07T06:11:24.634Z,7.83
2019-05-07T06:14:42.287Z,7.93
2019-05-07T06:18:17.650Z,7.80
2019-05-07T06:21:44.551Z,7.67
2019-05-07T06:25:14.473Z,7.50
2019-05-07T06:28:17.823Z,8.40
2019-05-07T06:31:22.932Z,8.40
2019-05-07T06:34:27.928Z,7.63
2019-05-07T06:37:33.092Z,7.80
2019-05-07T06:40:57.472Z,7.90
2019-05-07T06:44:07.079Z,7.27
2019-05-07T06:47:13.050Z,7.70
2019-05-07T06:50:18.277Z,6.90
2019-05-07T06:53:23.501Z,7.40
2019-05-07T06:56:28.630Z,7.67
2019-05-07T06:59:47.829Z,7.07
2019-05-07T07:02:57.720Z,7.33
2019-05-07T07:06:17.837Z,7.50
2019-05-07T07:09:44.416Z,7.63
2019-05-07T07:12:49.546Z,7.33
2019-05-07T07:15:54.492Z,8.57
2019-05-07T07:18:59.971Z,7.90
2019-05-07T07:22:05.124Z,7.43
2019-05-07T07:25:11.897Z,7.03
2019-05-07T07:28:16.970Z,7.27
2019-05-07T07:31:32.565Z,7.07
2019-05-07T07:34:45.610Z,6.73
2019-05-07T07:37:52.902Z,4.30
2019-05-07T07:41:16.414Z,5.33
2019-05-07T07:44:22.321Z,5.40
2019-05-07T07:47:27.350Z,5.50
2019-05-07T07:50:33.021Z,5.00
2019-05-07T07:53:38.488Z,5.60
2019-05-07T07:56:55.687Z,4.90
2019-05-07T08:00:14.433Z,5.17
2019-05-07T08:03:19.821Z,4.67
2019-05-07T08:06:26.929Z,4.60
2019-05-07T08:09:32.923Z,4.30
2019-05-07T08:12:38.196Z,4.33
2019-05-07T08:15:43.151Z,4.40
2019-05-07T08:18:48.436Z,4.70
2019-05-07T08:21:53.828Z,4.80
2019-05-07T08:24:58.783Z,4.60
2019-05-07T08:28:03.802Z,4.70
2019-05-07T08:31:27.684Z,5.67
2019-05-07T08:34:42.699Z,4.20
2019-05-07T08:37:48.088Z,4.20
2019-05-07T08:40:53.360Z,4.13
2019-05-07T08:44:15.231Z,4.60
2019-05-07T08:47:22.705Z,4.00
2019-05-07T08:50:27.377Z,6.20
2019-05-07T08:53:32.876Z,4.00
2019-05-07T08:56:39.154Z,4.30
2019-05-07T08:59:57.607Z,6.13
2019-05-07T09:02:52.426Z,4.83
2019-05-07T09:05:57.674Z,4.47
2019-05-07T09:09:04.535Z,4.07
2019-05-07T09:12:09.512Z,4.47
2019-05-07T09:15:16.283Z,4.00
2019-05-07T09:18:22.943Z,4.37
2019-05-07T09:21:28.011Z,3.83
2019-05-07T09:24:33.546Z,4.20
2019-05-07T09:27:44.179Z,4.37
2019-05-07T09:31:04.933Z,4.77
2019-05-07T09:34:11.714Z,3.80
2019-05-07T09:37:22.645Z,3.90
2019-05-07T09:40:27.616Z,4.20
2019-05-07T09:43:32.693Z,4.60
2019-05-07T09:46:37.747Z,3.70
2019-05-07T09:49:44.444Z,4.07
2019-05-07T09:52:51.848Z,3.60
2019-05-07T09:55:56.946Z,3.87
2019-05-07T09:59:02.333Z,4.10
2019-05-07T10:02:08.239Z,4.20
2019-05-07T10:05:13.953Z,3.87
2019-05-07T10:08:19.165Z,3.53
2019-05-07T10:11:33.882Z,3.13
2019-05-07T10:14:41.947Z,4.37
2019-05-07T10:17:54.195Z,3.67
2019-05-07T10:20:59.713Z,3.40
2019-05-07T10:24:04.993Z,4.40
2019-05-07T10:27:12.493Z,3.83
2019-05-07T10:30:17.510Z,3.53
2019-05-07T10:33:22.961Z,3.40
2019-05-07T10:36:28.163Z,3.20
2019-05-07T10:39:33.512Z,3.63
2019-05-07T10:42:38.674Z,3.83
2019-05-07T10:45:54.834Z,3.80
2019-05-07T10:49:06.145Z,3.47
2019-05-07T10:52:12.558Z,4.23
2019-05-07T10:55:17.523Z,4.23
2019-05-07T10:58:22.620Z,4.57
2019-05-07T11:01:45.736Z,3.27
2019-05-07T11:04:53.067Z,3.70
2019-05-07T11:07:57.631Z,3.40
2019-05-07T11:11:02.941Z,3.70
2019-05-07T11:14:08.337Z,3.37
2019-05-07T11:17:26.377Z,3.53
2019-05-07T11:20:45.657Z,3.57
2019-05-07T11:23:39.422Z,4.30
2019-05-07T11:26:44.471Z,2.83
2019-05-07T11:29:49.474Z,3.90
2019-05-07T11:32:55.277Z,3.90
2019-05-07T11:36:02.049Z,3.13
2019-05-07T11:39:07.916Z,3.73
2019-05-07T11:42:42.686Z,3.47
2019-05-07T11:46:02.127Z,3.43
2019-05-07T11:49:22.840Z,3.00
2019-05-07T11:52:35.592Z,3.60
2019-05-07T11:55:41.919Z,3.40
2019-05-07T11:58:46.744Z,3.80
2019-05-07T12:01:56.453Z,3.77
2019-05-07T12:05:01.969Z,3.17
2019-05-07T12:08:07.477Z,3.93
2019-05-07T12:11:12.464Z,4.10
2019-05-07T12:14:27.950Z,4.00
2019-05-07T12:17:24.277Z,3.90
2019-05-07T12:20:29.773Z,3.00
2019-05-07T12:23:34.809Z,3.00
2019-05-07T12:26:41.747Z,3.00
2019-05-07T12:29:46.619Z,3.40
2019-05-07T12:33:08.318Z,3.80
2019-05-07T12:36:14.597Z,3.40
2019-05-07T12:39:21.810Z,3.80
2019-05-07T12:42:26.355Z,3.30
2019-05-07T12:45:31.597Z,3.17
2019-05-07T12:48:36.730Z,3.90
2019-05-07T12:51:49.022Z,3.40
2019-05-07T12:55:04.392Z,3.40
2019-05-07T12:58:09.715Z,3.30
2019-05-07T13:01:23.562Z,3.50
2019-05-07T13:04:29.537Z,3.47
2019-05-07T13:08:02.642Z,3.30
2019-05-07T13:11:07.753Z,3.20
2019-05-07T13:14:12.765Z,3.13
2019-05-07T13:17:17.904Z,3.37
2019-05-07T13:20:23.424Z,2.80
2019-05-07T13:23:28.488Z,3.53
2019-05-07T13:26:33.826Z,3.37
2019-05-07T13:29:38.882Z,3.27
2019-05-07T13:32:48.192Z,3.10
2019-05-07T13:35:53.315Z,3.43
2019-05-07T13:39:23.326Z,2.90
2019-05-07T13:42:56.075Z,3.10
2019-05-07T13:46:12.068Z,3.50
2019-05-07T13:49:18.395Z,3.87
2019-05-07T13:52:24.801Z,3.60
2019-05-07T13:55:32.255Z,3.40
2019-05-07T13:58:36.715Z,2.87
2019-05-07T14:02:07.195Z,3.40
2019-05-07T14:05:14.322Z,3.73
2019-05-07T14:08:19.797Z,3.53
2019-05-07T14:11:25.708Z,2.70
2019-05-07T14:14:34.138Z,3.10
2019-05-07T14:17:37.820Z,3.57
2019-05-07T14:20:43.066Z,3.17
2019-05-07T14:23:48.174Z,3.00
2019-05-07T14:26:54.970Z,3.23
2019-05-07T14:30:02.496Z,3.13
2019-05-07T14:33:13.268Z,3.63
2019-05-07T14:36:22.421Z,3.30
2019-05-07T14:39:27.752Z,3.20
2019-05-07T14:42:38.405Z,2.77
2019-05-07T14:45:43.668Z,3.00
2019-05-07T14:48:49.144Z,3.07
2019-05-07T14:51:54.230Z,3.30
2019-05-07T14:54:59.513Z,3.83
2019-05-07T14:58:05.797Z,3.20
2019-05-07T15:01:11.775Z,2.80
2019-05-07T15:04:16.758Z,3.60
2019-05-07T15:07:22.591Z,4.17
2019-05-07T15:10:27.827Z,3.40
2019-05-07T15:13:33.245Z,3.37
2019-05-07T15:16:38.723Z,3.40
2019-05-07T15:19:44.132Z,2.90
2019-05-07T15:23:04.178Z,3.60
2019-05-07T15:26:09.121Z,3.37
2019-05-07T15:29:15.267Z,3.73
2019-05-07T15:32:21.818Z,3.07
2019-05-07T15:35:27.005Z,3.57
2019-05-07T15:38:32.453Z,3.47
2019-05-07T15:41:37.434Z,3.00
2019-05-07T15:44:43.221Z,3.47
2019-05-07T15:47:50.245Z,3.30
2019-05-07T15:50:55.532Z,3.40
2019-05-07T15:54:03.389Z,3.43
2019-05-07T15:57:13.741Z,3.83
2019-05-07T16:00:21.747Z,4.40
2019-05-07T16:03:39.826Z,3.33
2019-05-07T16:06:44.796Z,4.50
2019-05-07T16:09:49.833Z,4.27
2019-05-07T16:12:55.360Z,3.40
2019-05-07T16:16:02.243Z,4.13
2019-05-07T16:19:15.192Z,3.37
2019-05-07T16:22:28.365Z,3.40
2019-05-07T16:25:33.308Z,3.40
2019-05-07T16:28:38.225Z,4.67
2019-05-07T16:31:44.270Z,3.20
2019-05-07T16:34:49.525Z,4.10
2019-05-07T16:37:54.516Z,3.67
2019-05-07T16:40:59.538Z,4.10
2019-05-07T16:44:04.831Z,3.63
2019-05-07T16:47:12.182Z,3.50
2019-05-07T16:50:18.955Z,3.83
2019-05-07T16:53:29.767Z,3.60
2019-05-07T16:56:30.724Z,3.47
2019-05-07T16:59:35.813Z,3.70
2019-05-07T17:02:44.588Z,4.00
2019-05-07T17:05:49.778Z,3.90
2019-05-07T17:09:02.595Z,4.13
2019-05-07T17:12:09.493Z,3.60
2019-05-07T17:15:15.568Z,3.43
2019-05-07T17:18:22.142Z,4.03
2019-05-07T17:21:27.317Z,3.73
2019-05-07T17:24:32.972Z,3.70
2019-05-07T17:27:38.216Z,5.23
2019-05-07T17:30:43.180Z,6.10
2019-05-07T17:33:48.249Z,6.77
2019-05-07T17:36:53.270Z,4.97
2019-05-07T17:39:58.315Z,4.33
2019-05-07T17:43:03.484Z,4.30
2019-05-07T17:46:08.632Z,4.27
2019-05-07T17:49:13.676Z,3.67
2019-05-07T17:52:18.787Z,4.60
2019-05-07T17:55:24.001Z,4.63
2019-05-07T17:58:28.847Z,5.10
2019-05-07T18:02:02.178Z,4.00
2019-05-07T18:05:08.274Z,4.07
2019-05-07T18:08:13.617Z,5.63
2019-05-07T18:11:23.665Z,4.90
2019-05-07T18:14:25.483Z,4.60
2019-05-07T18:17:45.876Z,5.10
2019-05-07T18:20:50.854Z,4.50
2019-05-07T18:23:55.983Z,4.50
2019-05-07T18:27:01.989Z,4.47
2019-05-07T18:30:07.626Z,4.60
2019-05-07T18:33:41.763Z,5.00
2019-05-07T18:36:48.507Z,4.20
2019-05-07T18:39:53.604Z,4.80
2019-05-07T18:42:58.696Z,4.57
2019-05-07T18:46:04.347Z,4.80
2019-05-07T18:49:09.422Z,5.27
2019-05-07T18:52:14.990Z,3.83
2019-05-07T18:55:22.454Z,4.70
2019-05-07T18:58:27.437Z,5.63
2019-05-07T19:01:34.259Z,5.10
2019-05-07T19:04:39.501Z,5.67
2019-05-07T19:07:45.215Z,6.00
2019-05-07T19:10:52.124Z,5.57
2019-05-07T19:13:56.959Z,5.03
2019-05-07T19:17:03.162Z,5.73
2019-05-07T19:20:08.929Z,5.70
2019-05-07T19:23:13.908Z,4.90
2019-05-07T19:26:18.948Z,5.30
2019-05-07T19:29:24.049Z,5.13
2019-05-07T19:32:28.980Z,5.50
2019-05-07T19:35:34.297Z,5.13
2019-05-07T19:38:41.872Z,4.60
2019-05-07T19:41:46.426Z,4.60
2019-05-07T19:44:51.961Z,5.53
2019-05-07T19:47:57.104Z,4.70
2019-05-07T19:51:02.930Z,5.43
2019-05-07T19:54:08.152Z,5.80
2019-05-07T19:57:21.089Z,5.13
2019-05-07T20:00:26.906Z,5.10
2019-05-07T20:03:32.000Z,4.67
2019-05-07T20:06:37.302Z,4.90
2019-05-07T20:09:42.872Z,5.20
2019-05-07T20:12:48.062Z,6.23
2019-05-07T20:15:58.427Z,6.07
2019-05-07T20:19:04.010Z,5.10
2019-05-07T20:22:09.077Z,6.37
2019-05-07T20:25:18.972Z,5.50
2019-05-07T20:28:21.795Z,6.10
2019-05-07T20:31:26.807Z,5.40
2019-05-07T20:34:33.249Z,5.90
2019-05-07T20:37:38.574Z,5.20
2019-05-07T20:40:43.448Z,5.63
2019-05-07T20:43:48.548Z,5.63
2019-05-07T20:46:53.836Z,5.40
2019-05-07T20:49:59.057Z,5.77
2019-05-07T20:53:04.141Z,5.30
2019-05-07T20:56:09.403Z,5.50
2019-05-07T20:59:15.497Z,5.83
2019-05-07T21:02:22.543Z,5.83
2019-05-07T21:05:27.375Z,6.93
2019-05-07T21:08:32.732Z,6.00
2019-05-07T21:11:37.957Z,5.93
2019-05-07T21:14:42.934Z,5.43
2019-05-07T21:17:47.824Z,5.83
2019-05-07T21:20:53.206Z,5.83
2019-05-07T21:23:58.221Z,5.60
2019-05-07T21:27:03.237Z,5.63
2019-05-07T21:30:08.488Z,5.70
2019-05-07T21:33:13.555Z,6.27
2019-05-07T21:36:18.753Z,6.10
2019-05-07T21:39:23.832Z,5.90
2019-05-07T21:42:28.835Z,5.50
2019-05-07T21:45:33.947Z,5.90
2019-05-07T21:48:39.028Z,7.23
2019-05-07T21:51:44.070Z,5.87
2019-05-07T21:54:58.012Z,6.20
2019-05-07T21:58:22.995Z,6.43
2019-05-07T22:01:35.329Z,7.47
2019-05-07T22:04:42.131Z,5.40
2019-05-07T22:07:47.255Z,6.70
2019-05-07T22:10:52.241Z,5.97
2019-05-07T22:13:57.361Z,6.47
2019-05-07T22:17:02.427Z,5.50
2019-05-07T22:20:07.957Z,5.87
2019-05-07T22:23:12.835Z,5.67
2019-05-07T22:26:22.940Z,7.57
2019-05-07T22:29:24.595Z,6.27
2019-05-07T22:32:54.514Z,6.07
2019-05-07T22:36:01.710Z,5.30
2019-05-07T22:39:07.720Z,6.07
2019-05-07T22:42:12.922Z,5.73
2019-05-07T22:45:18.004Z,5.57
2019-05-07T22:48:23.018Z,6.00
2019-05-07T22:51:28.081Z,5.67
2019-05-07T22:54:33.160Z,5.90
2019-05-07T22:57:59.060Z,5.27
2019-05-07T23:01:09.770Z,5.50
2019-05-07T23:04:14.869Z,6.57
2019-05-07T23:07:22.145Z,6.40
2019-05-07T23:10:26.449Z,6.67
2019-05-07T23:13:31.935Z,6.80
2019-05-07T23:16:36.633Z,6.67
2019-05-07T23:19:41.976Z,6.13
2019-05-07T23:22:46.878Z,6.70
2019-05-07T23:25:52.362Z,6.70
2019-05-07T23:28:58.136Z,5.70
2019-05-07T23:32:03.345Z,6.57
2019-05-07T23:35:08.617Z,5.60
2019-05-07T23:38:15.853Z,6.33
2019-05-07T23:41:29.623Z,6.87
2019-05-07T23:44:34.651Z,6.97
2019-05-07T23:47:39.787Z,7.07
2019-05-07T23:50:44.923Z,6.43
2019-05-07T23:53:51.891Z,6.50
2019-05-07T23:57:05.962Z,6.50
